sensor_id;sensor_type;location;lat;lon;timestamp;temperature;humidity
2867;DHT22;1441;48.886;8.728;2024-01-15T00:01:53;-1.70;99.90
2867;DHT22;1441;48.886;8.728;2024-01-15T00:04:19;-1.70;99.90
2867;DHT22;1441;48.886;8.728;2024-01-15T00:06:44;-1.60;99.90
2867;DHT22;1441;48.886;8.728;2024-01-15T00:09:10;-1.60;99.90
2867;DHT22;1441;48.886;8.728;2024-01-15T00:11:35;-1.60;99.90
2867;DHT22;1441;48.886;8.728;2024-01-15T00:14:01;-1.60;99.90
2867;DHT22;1441;48.886;8.728;2024-01-15T00:16:26;-1.60;99.90
2867;DHT22;1441;48.886;8.728;2024-01-15T00:18:52;-1.60;99.90
2867;DHT22;1441;48.886;8.728;2024-01-15T00:21:17;-1.60;99.90
2867;DHT22;1441;48.886;8.728;2024-01-15T00:23:43;-1.50;99.90
2867;DHT22;1441;48.886;8.728;2024-01-15T00:26:12;-1.50;99.90
2867;DHT22;1441;48.886;8.728;2024-01-15T00:28:38;-1.60;99.90
2867;DHT22;1441;48.886;8.728;2024-01-15T00:31:05;-1.60;99.90
2867;DHT22;1441;48.886;8.728;2024-01-15T00:33:30;-1.60;99.90
2867;DHT22;1441;48.886;8.728;2024-01-15T00:35:56;-1.60;99.90
2867;DHT22;1441;48.886;8.728;2024-01-15T00:38:22;-1.60;99.90
2867;DHT22;1441;48.886;8.728;2024-01-15T00:40:48;-1.60;99.90
2867;DHT22;1441;48.886;8.728;2024-01-15T00:43:14;-1.60;99.90
2867;DHT22;1441;48.886;8.728;2024-01-15T00:45:40;-1.50;99.90
2867;DHT22;1441;48.886;8.728;2024-01-15T00:48:05;-1.50;99.90
2867;DHT22;1441;48.886;8.728;2024-01-15T00:50:31;-1.50;99.90
2867;DHT22;1441;48.886;8.728;2024-01-15T00:52:57;-1.40;99.90
2867;DHT22;1441;48.886;8.728;2024-01-15T00:55:22;-1.40;99.90
2867;DHT22;1441;48.886;8.728;2024-01-15T00:57:48;-1.40;99.90
2867;DHT22;1441;48.886;8.728;2024-01-15T01:00:14;-1.40;99.90
2867;DHT22;1441;48.886;8.728;2024-01-15T01:02:39;-1.40;99.90
2867;DHT22;1441;48.886;8.728;2024-01-15T01:05:05;-1.40;99.90
2867;DHT22;1441;48.886;8.728;2024-01-15T01:07:30;-1.40;99.90
2867;DHT22;1441;48.886;8.728;2024-01-15T01:09:56;-1.40;99.90
2867;DHT22;1441;48.886;8.728;2024-01-15T01:12:22;-1.40;99.90
2867;DHT22;1441;48.886;8.728;2024-01-15T01:14:47;-1.40;99.90
2867;DHT22;1441;48.886;8.728;2024-01-15T01:17:13;-1.40;99.90
2867;DHT22;1441;48.886;8.728;2024-01-15T01:19:38;-1.40;99.90
2867;DHT22;1441;48.886;8.728;2024-01-15T01:22:04;-1.30;99.90
2867;DHT22;1441;48.886;8.728;2024-01-15T01:24:30;-1.30;99.90
2867;DHT22;1441;48.886;8.728;2024-01-15T01:26:55;-1.30;99.90
2867;DHT22;1441;48.886;8.728;2024-01-15T01:29:21;-1.40;99.90
2867;DHT22;1441;48.886;8.728;2024-01-15T01:31:48;-1.30;99.90
2867;DHT22;1441;48.886;8.728;2024-01-15T01:34:15;-1.30;99.90
2867;DHT22;1441;48.886;8.728;2024-01-15T01:36:41;-1.30;99.90
2867;DHT22;1441;48.886;8.728;2024-01-15T01:39:06;-1.40;99.90
2867;DHT22;1441;48.886;8.728;2024-01-15T01:41:32;-1.30;99.90
2867;DHT22;1441;48.886;8.728;2024-01-15T01:43:57;-1.30;99.90
2867;DHT22;1441;48.886;8.728;2024-01-15T01:46:24;-1.30;99.90
2867;DHT22;1441;48.886;8.728;2024-01-15T01:48:51;-1.30;99.90
2867;DHT22;1441;48.886;8.728;2024-01-15T01:51:17;-1.30;99.90
2867;DHT22;1441;48.886;8.728;2024-01-15T01:53:44;-1.30;99.90
2867;DHT22;1441;48.886;8.728;2024-01-15T01:56:10;-1.30;99.90
2867;DHT22;1441;48.886;8.728;2024-01-15T01:58:37;-1.30;99.90
2867;DHT22;1441;48.886;8.728;2024-01-15T02:01:02;-1.20;99.90
2867;DHT22;1441;48.886;8.728;2024-01-15T02:03:29;-1.20;99.90
2867;DHT22;1441;48.886;8.728;2024-01-15T02:05:56;-1.30;99.90
2867;DHT22;1441;48.886;8.728;2024-01-15T02:08:22;-1.30;99.90
2867;DHT22;1441;48.886;8.728;2024-01-15T02:10:47;-1.20;99.90
2867;DHT22;1441;48.886;8.728;2024-01-15T02:13:13;-1.20;99.90
2867;DHT22;1441;48.886;8.728;2024-01-15T02:15:39;-1.20;99.90
2867;DHT22;1441;48.886;8.728;2024-01-15T02:18:06;-1.30;99.90
2867;DHT22;1441;48.886;8.728;2024-01-15T02:20:33;-1.20;99.90
2867;DHT22;1441;48.886;8.728;2024-01-15T02:23:17;-1.20;99.90
2867;DHT22;1441;48.886;8.728;2024-01-15T02:25:44;-1.20;99.90
2867;DHT22;1441;48.886;8.728;2024-01-15T02:28:14;-1.20;99.90
2867;DHT22;1441;48.886;8.728;2024-01-15T02:30:41;-1.20;99.90
2867;DHT22;1441;48.886;8.728;2024-01-15T02:33:07;-1.20;99.90
2867;DHT22;1441;48.886;8.728;2024-01-15T02:35:33;-1.10;99.90
2867;DHT22;1441;48.886;8.728;2024-01-15T02:37:59;-1.10;99.90
2867;DHT22;1441;48.886;8.728;2024-01-15T02:40:25;-1.20;99.90
2867;DHT22;1441;48.886;8.728;2024-01-15T02:42:50;-1.10;99.90
2867;DHT22;1441;48.886;8.728;2024-01-15T02:45:16;-1.10;99.90
2867;DHT22;1441;48.886;8.728;2024-01-15T02:47:42;-1.20;99.90
2867;DHT22;1441;48.886;8.728;2024-01-15T02:50:08;-1.20;99.90
2867;DHT22;1441;48.886;8.728;2024-01-15T02:52:33;-1.10;99.90
2867;DHT22;1441;48.886;8.728;2024-01-15T02:54:59;-1.00;99.90
2867;DHT22;1441;48.886;8.728;2024-01-15T02:57:24;-1.00;99.90
2867;DHT22;1441;48.886;8.728;2024-01-15T02:59:50;-1.00;99.90
2867;DHT22;1441;48.886;8.728;2024-01-15T03:02:15;-1.10;99.90
2867;DHT22;1441;48.886;8.728;2024-01-15T03:04:45;-1.10;99.90
2867;DHT22;1441;48.886;8.728;2024-01-15T03:07:11;-1.10;99.90
2867;DHT22;1441;48.886;8.728;2024-01-15T03:09:36;-1.00;99.90
2867;DHT22;1441;48.886;8.728;2024-01-15T03:12:02;-1.00;99.90
2867;DHT22;1441;48.886;8.728;2024-01-15T03:14:28;-1.10;99.90
2867;DHT22;1441;48.886;8.728;2024-01-15T03:16:53;-1.00;99.90
2867;DHT22;1441;48.886;8.728;2024-01-15T03:19:19;-1.00;99.90
2867;DHT22;1441;48.886;8.728;2024-01-15T03:21:44;-1.10;99.90
2867;DHT22;1441;48.886;8.728;2024-01-15T03:24:10;-1.10;99.90
2867;DHT22;1441;48.886;8.728;2024-01-15T03:26:36;-1.00;99.90
2867;DHT22;1441;48.886;8.728;2024-01-15T03:29:01;-1.10;99.90
2867;DHT22;1441;48.886;8.728;2024-01-15T03:31:27;-1.00;99.90
2867;DHT22;1441;48.886;8.728;2024-01-15T03:33:53;-1.00;99.90
2867;DHT22;1441;48.886;8.728;2024-01-15T03:36:18;-1.00;99.90
2867;DHT22;1441;48.886;8.728;2024-01-15T03:38:44;-1.00;99.90
2867;DHT22;1441;48.886;8.728;2024-01-15T03:41:09;-1.00;99.90
2867;DHT22;1441;48.886;8.728;2024-01-15T03:43:35;-0.90;99.90
2867;DHT22;1441;48.886;8.728;2024-01-15T03:46:00;-1.00;99.90
2867;DHT22;1441;48.886;8.728;2024-01-15T03:48:27;-0.90;99.90
2867;DHT22;1441;48.886;8.728;2024-01-15T03:50:53;-0.90;99.90
2867;DHT22;1441;48.886;8.728;2024-01-15T03:53:18;-0.90;99.90
2867;DHT22;1441;48.886;8.728;2024-01-15T03:55:44;-0.90;99.90
2867;DHT22;1441;48.886;8.728;2024-01-15T03:58:10;-0.90;99.90
2867;DHT22;1441;48.886;8.728;2024-01-15T04:00:35;-0.80;99.90
2867;DHT22;1441;48.886;8.728;2024-01-15T04:03:01;-0.90;99.90
2867;DHT22;1441;48.886;8.728;2024-01-15T04:05:26;-0.90;99.90
2867;DHT22;1441;48.886;8.728;2024-01-15T04:07:52;-0.80;99.90
2867;DHT22;1441;48.886;8.728;2024-01-15T04:10:18;-0.80;99.90
2867;DHT22;1441;48.886;8.728;2024-01-15T04:12:43;-0.80;99.90
2867;DHT22;1441;48.886;8.728;2024-01-15T04:15:11;-0.80;99.90
2867;DHT22;1441;48.886;8.728;2024-01-15T04:17:37;-0.70;99.90
2867;DHT22;1441;48.886;8.728;2024-01-15T04:20:03;-0.70;99.90
2867;DHT22;1441;48.886;8.728;2024-01-15T04:22:29;-0.70;99.90
2867;DHT22;1441;48.886;8.728;2024-01-15T04:24:54;-0.70;99.90
2867;DHT22;1441;48.886;8.728;2024-01-15T04:27:20;-0.70;99.90
2867;DHT22;1441;48.886;8.728;2024-01-15T04:29:45;-0.70;99.90
2867;DHT22;1441;48.886;8.728;2024-01-15T04:32:11;-0.70;99.90
2867;DHT22;1441;48.886;8.728;2024-01-15T04:34:37;-0.60;99.90
2867;DHT22;1441;48.886;8.728;2024-01-15T04:37:02;-0.60;99.90
2867;DHT22;1441;48.886;8.728;2024-01-15T04:39:28;-0.60;99.90
2867;DHT22;1441;48.886;8.728;2024-01-15T04:41:54;-0.60;99.90
2867;DHT22;1441;48.886;8.728;2024-01-15T04:44:19;-0.60;99.90
2867;DHT22;1441;48.886;8.728;2024-01-15T04:46:45;-0.60;99.90
2867;DHT22;1441;48.886;8.728;2024-01-15T04:49:11;-0.60;99.90
2867;DHT22;1441;48.886;8.728;2024-01-15T04:51:37;-0.60;99.90
2867;DHT22;1441;48.886;8.728;2024-01-15T04:54:03;-0.50;99.90
2867;DHT22;1441;48.886;8.728;2024-01-15T04:56:28;-0.50;99.90
2867;DHT22;1441;48.886;8.728;2024-01-15T04:58:54;-0.50;99.90
2867;DHT22;1441;48.886;8.728;2024-01-15T05:01:19;-0.50;99.90
2867;DHT22;1441;48.886;8.728;2024-01-15T05:03:45;-0.60;99.90
2867;DHT22;1441;48.886;8.728;2024-01-15T05:06:11;-0.50;99.90
2867;DHT22;1441;48.886;8.728;2024-01-15T05:08:36;-0.50;99.90
2867;DHT22;1441;48.886;8.728;2024-01-15T05:11:02;-0.50;99.90
2867;DHT22;1441;48.886;8.728;2024-01-15T05:13:28;-0.40;99.90
2867;DHT22;1441;48.886;8.728;2024-01-15T05:15:53;-0.40;99.90
2867;DHT22;1441;48.886;8.728;2024-01-15T05:18:19;-0.40;99.90
2867;DHT22;1441;48.886;8.728;2024-01-15T05:20:44;-0.40;99.90
2867;DHT22;1441;48.886;8.728;2024-01-15T05:23:10;-0.50;99.90
2867;DHT22;1441;48.886;8.728;2024-01-15T05:25:35;-0.50;99.90
2867;DHT22;1441;48.886;8.728;2024-01-15T05:28:01;-0.50;99.90
2867;DHT22;1441;48.886;8.728;2024-01-15T05:30:27;-0.50;99.90
2867;DHT22;1441;48.886;8.728;2024-01-15T05:32:53;-0.40;99.90
2867;DHT22;1441;48.886;8.728;2024-01-15T05:35:19;-0.40;99.90
2867;DHT22;1441;48.886;8.728;2024-01-15T05:37:45;-0.40;99.90
2867;DHT22;1441;48.886;8.728;2024-01-15T05:40:11;-0.50;99.90
2867;DHT22;1441;48.886;8.728;2024-01-15T05:42:38;-0.50;99.90
2867;DHT22;1441;48.886;8.728;2024-01-15T05:45:05;-0.40;99.90
2867;DHT22;1441;48.886;8.728;2024-01-15T05:47:30;-0.40;99.90
2867;DHT22;1441;48.886;8.728;2024-01-15T05:49:57;-0.40;99.90
2867;DHT22;1441;48.886;8.728;2024-01-15T05:52:22;-0.30;99.90
2867;DHT22;1441;48.886;8.728;2024-01-15T05:54:49;-0.40;99.90
2867;DHT22;1441;48.886;8.728;2024-01-15T05:57:15;-0.40;99.90
2867;DHT22;1441;48.886;8.728;2024-01-15T05:59:40;-0.30;99.90
2867;DHT22;1441;48.886;8.728;2024-01-15T06:02:06;-0.40;99.90
2867;DHT22;1441;48.886;8.728;2024-01-15T06:04:31;-0.40;99.90
2867;DHT22;1441;48.886;8.728;2024-01-15T06:06:57;-0.40;99.90
2867;DHT22;1441;48.886;8.728;2024-01-15T06:09:22;-0.30;99.70
2867;DHT22;1441;48.886;8.728;2024-01-15T06:11:48;-0.20;98.90
2867;DHT22;1441;48.886;8.728;2024-01-15T06:14:14;-0.20;99.10
2867;DHT22;1441;48.886;8.728;2024-01-15T06:16:39;-0.20;99.10
2867;DHT22;1441;48.886;8.728;2024-01-15T06:19:05;-0.20;98.90
2867;DHT22;1441;48.886;8.728;2024-01-15T06:21:30;-0.20;98.80
2867;DHT22;1441;48.886;8.728;2024-01-15T06:23:56;0.00;98.40
2867;DHT22;1441;48.886;8.728;2024-01-15T06:26:22;0.00;98.50
2867;DHT22;1441;48.886;8.728;2024-01-15T06:28:48;-0.10;97.90
2867;DHT22;1441;48.886;8.728;2024-01-15T06:31:14;-0.10;97.20
2867;DHT22;1441;48.886;8.728;2024-01-15T06:33:39;-0.10;96.30
2867;DHT22;1441;48.886;8.728;2024-01-15T06:36:05;-0.20;96.30
2867;DHT22;1441;48.886;8.728;2024-01-15T06:38:31;-0.20;95.80
2867;DHT22;1441;48.886;8.728;2024-01-15T06:40:56;-0.10;95.40
2867;DHT22;1441;48.886;8.728;2024-01-15T06:43:22;0.00;95.10
2867;DHT22;1441;48.886;8.728;2024-01-15T06:45:48;0.00;94.60
2867;DHT22;1441;48.886;8.728;2024-01-15T06:48:13;0.00;95.20
2867;DHT22;1441;48.886;8.728;2024-01-15T06:50:42;0.00;95.10
2867;DHT22;1441;48.886;8.728;2024-01-15T06:53:07;-0.10;95.00
2867;DHT22;1441;48.886;8.728;2024-01-15T06:55:33;-0.10;94.70
2867;DHT22;1441;48.886;8.728;2024-01-15T06:58:01;0.00;94.60
2867;DHT22;1441;48.886;8.728;2024-01-15T07:00:26;0.00;94.30
2867;DHT22;1441;48.886;8.728;2024-01-15T07:02:53;0.00;94.40
2867;DHT22;1441;48.886;8.728;2024-01-15T07:05:20;0.10;94.40
2867;DHT22;1441;48.886;8.728;2024-01-15T07:07:46;0.10;93.80
2867;DHT22;1441;48.886;8.728;2024-01-15T07:10:13;0.20;94.00
2867;DHT22;1441;48.886;8.728;2024-01-15T07:12:38;0.20;93.90
2867;DHT22;1441;48.886;8.728;2024-01-15T07:15:04;0.20;94.00
2867;DHT22;1441;48.886;8.728;2024-01-15T07:17:32;0.10;93.80
2867;DHT22;1441;48.886;8.728;2024-01-15T07:19:57;0.10;94.00
2867;DHT22;1441;48.886;8.728;2024-01-15T07:22:23;0.10;93.70
2867;DHT22;1441;48.886;8.728;2024-01-15T07:24:49;0.10;93.70
2867;DHT22;1441;48.886;8.728;2024-01-15T07:27:14;0.10;93.80
2867;DHT22;1441;48.886;8.728;2024-01-15T07:29:40;0.10;93.10
2867;DHT22;1441;48.886;8.728;2024-01-15T07:32:05;0.20;92.90
2867;DHT22;1441;48.886;8.728;2024-01-15T07:34:32;0.20;93.10
2867;DHT22;1441;48.886;8.728;2024-01-15T07:36:58;0.20;93.60
2867;DHT22;1441;48.886;8.728;2024-01-15T07:39:24;0.20;93.20
2867;DHT22;1441;48.886;8.728;2024-01-15T07:41:51;0.20;93.30
2867;DHT22;1441;48.886;8.728;2024-01-15T07:44:16;0.20;93.20
2867;DHT22;1441;48.886;8.728;2024-01-15T07:46:46;0.20;93.20
2867;DHT22;1441;48.886;8.728;2024-01-15T07:49:12;0.30;93.50
2867;DHT22;1441;48.886;8.728;2024-01-15T07:51:38;0.30;93.80
2867;DHT22;1441;48.886;8.728;2024-01-15T07:54:05;0.30;93.70
2867;DHT22;1441;48.886;8.728;2024-01-15T07:56:31;0.20;94.20
2867;DHT22;1441;48.886;8.728;2024-01-15T07:58:57;0.20;94.30
2867;DHT22;1441;48.886;8.728;2024-01-15T08:01:22;0.30;94.00
2867;DHT22;1441;48.886;8.728;2024-01-15T08:03:48;0.30;94.00
2867;DHT22;1441;48.886;8.728;2024-01-15T08:06:13;0.30;94.00
2867;DHT22;1441;48.886;8.728;2024-01-15T08:08:39;0.30;93.70
2867;DHT22;1441;48.886;8.728;2024-01-15T08:11:05;0.30;93.80
2867;DHT22;1441;48.886;8.728;2024-01-15T08:13:30;0.40;93.90
2867;DHT22;1441;48.886;8.728;2024-01-15T08:15:56;0.40;93.60
2867;DHT22;1441;48.886;8.728;2024-01-15T08:18:21;0.40;93.80
2867;DHT22;1441;48.886;8.728;2024-01-15T08:20:47;0.40;93.90
2867;DHT22;1441;48.886;8.728;2024-01-15T08:23:13;0.50;93.70
2867;DHT22;1441;48.886;8.728;2024-01-15T08:25:39;0.40;93.40
2867;DHT22;1441;48.886;8.728;2024-01-15T08:28:04;0.40;93.90
2867;DHT22;1441;48.886;8.728;2024-01-15T08:30:30;0.50;94.20
2867;DHT22;1441;48.886;8.728;2024-01-15T08:32:56;0.40;94.40
2867;DHT22;1441;48.886;8.728;2024-01-15T08:35:22;0.50;94.30
2867;DHT22;1441;48.886;8.728;2024-01-15T08:37:51;0.50;94.30
2867;DHT22;1441;48.886;8.728;2024-01-15T08:40:17;0.40;94.80
2867;DHT22;1441;48.886;8.728;2024-01-15T08:42:43;0.40;95.40
2867;DHT22;1441;48.886;8.728;2024-01-15T08:45:09;0.40;96.30
2867;DHT22;1441;48.886;8.728;2024-01-15T08:47:35;0.40;96.90
2867;DHT22;1441;48.886;8.728;2024-01-15T08:50:02;0.40;96.90
2867;DHT22;1441;48.886;8.728;2024-01-15T08:52:28;0.30;96.80
2867;DHT22;1441;48.886;8.728;2024-01-15T08:54:56;0.40;97.00
2867;DHT22;1441;48.886;8.728;2024-01-15T08:57:21;0.40;97.00
2867;DHT22;1441;48.886;8.728;2024-01-15T08:59:47;0.40;97.20
2867;DHT22;1441;48.886;8.728;2024-01-15T09:02:13;0.50;97.00
2867;DHT22;1441;48.886;8.728;2024-01-15T09:04:38;0.50;96.80
2867;DHT22;1441;48.886;8.728;2024-01-15T09:07:04;0.50;96.80
2867;DHT22;1441;48.886;8.728;2024-01-15T09:09:30;0.60;96.90
2867;DHT22;1441;48.886;8.728;2024-01-15T09:11:55;0.60;96.90
2867;DHT22;1441;48.886;8.728;2024-01-15T09:14:21;0.60;97.00
2867;DHT22;1441;48.886;8.728;2024-01-15T09:16:47;0.60;96.80
2867;DHT22;1441;48.886;8.728;2024-01-15T09:19:13;0.60;96.80
2867;DHT22;1441;48.886;8.728;2024-01-15T09:21:39;0.60;96.90
2867;DHT22;1441;48.886;8.728;2024-01-15T09:24:05;0.60;97.00
2867;DHT22;1441;48.886;8.728;2024-01-15T09:26:30;0.60;96.90
2867;DHT22;1441;48.886;8.728;2024-01-15T09:28:57;0.60;96.70
2867;DHT22;1441;48.886;8.728;2024-01-15T09:31:23;0.60;96.80
2867;DHT22;1441;48.886;8.728;2024-01-15T09:33:49;0.70;96.50
2867;DHT22;1441;48.886;8.728;2024-01-15T09:36:16;0.70;96.60
2867;DHT22;1441;48.886;8.728;2024-01-15T09:38:42;0.70;96.70
2867;DHT22;1441;48.886;8.728;2024-01-15T09:41:08;0.80;96.40
2867;DHT22;1441;48.886;8.728;2024-01-15T09:43:33;0.80;96.30
2867;DHT22;1441;48.886;8.728;2024-01-15T09:45:59;0.80;96.30
2867;DHT22;1441;48.886;8.728;2024-01-15T09:48:26;0.80;96.40
2867;DHT22;1441;48.886;8.728;2024-01-15T09:50:52;0.80;96.10
2867;DHT22;1441;48.886;8.728;2024-01-15T09:53:18;0.80;95.90
2867;DHT22;1441;48.886;8.728;2024-01-15T09:55:46;0.90;95.40
2867;DHT22;1441;48.886;8.728;2024-01-15T09:58:12;0.90;95.60
2867;DHT22;1441;48.886;8.728;2024-01-15T10:00:39;0.90;95.60
2867;DHT22;1441;48.886;8.728;2024-01-15T10:03:07;0.90;95.60
2867;DHT22;1441;48.886;8.728;2024-01-15T10:05:33;0.90;95.90
2867;DHT22;1441;48.886;8.728;2024-01-15T10:08:01;0.90;95.70
2867;DHT22;1441;48.886;8.728;2024-01-15T10:10:27;1.00;95.70
2867;DHT22;1441;48.886;8.728;2024-01-15T10:12:54;1.10;95.90
2867;DHT22;1441;48.886;8.728;2024-01-15T10:15:22;1.00;96.10
2867;DHT22;1441;48.886;8.728;2024-01-15T10:17:49;0.90;96.80
2867;DHT22;1441;48.886;8.728;2024-01-15T10:20:14;1.00;97.10
2867;DHT22;1441;48.886;8.728;2024-01-15T10:22:44;1.00;97.40
2867;DHT22;1441;48.886;8.728;2024-01-15T10:25:12;0.90;97.90
2867;DHT22;1441;48.886;8.728;2024-01-15T10:27:38;0.90;98.60
2867;DHT22;1441;48.886;8.728;2024-01-15T10:30:04;0.90;99.40
2867;DHT22;1441;48.886;8.728;2024-01-15T10:32:30;0.90;99.70
2867;DHT22;1441;48.886;8.728;2024-01-15T10:34:56;0.90;99.80
2867;DHT22;1441;48.886;8.728;2024-01-15T10:37:24;1.00;99.90
2867;DHT22;1441;48.886;8.728;2024-01-15T10:39:49;0.90;99.90
2867;DHT22;1441;48.886;8.728;2024-01-15T10:42:16;1.00;99.90
2867;DHT22;1441;48.886;8.728;2024-01-15T10:44:43;0.80;99.90
2867;DHT22;1441;48.886;8.728;2024-01-15T10:47:09;0.80;99.90
2867;DHT22;1441;48.886;8.728;2024-01-15T10:49:35;0.80;99.90
2867;DHT22;1441;48.886;8.728;2024-01-15T10:52:01;0.70;99.90
2867;DHT22;1441;48.886;8.728;2024-01-15T10:54:27;0.70;99.90
2867;DHT22;1441;48.886;8.728;2024-01-15T10:56:53;0.60;99.90
2867;DHT22;1441;48.886;8.728;2024-01-15T10:59:21;0.70;99.90
2867;DHT22;1441;48.886;8.728;2024-01-15T11:01:51;0.70;99.90
2867;DHT22;1441;48.886;8.728;2024-01-15T11:04:22;0.70;99.90
2867;DHT22;1441;48.886;8.728;2024-01-15T11:06:52;0.60;99.90
2867;DHT22;1441;48.886;8.728;2024-01-15T11:09:18;0.70;99.90
2867;DHT22;1441;48.886;8.728;2024-01-15T11:11:45;0.80;99.90
2867;DHT22;1441;48.886;8.728;2024-01-15T11:14:50;0.80;99.90
2867;DHT22;1441;48.886;8.728;2024-01-15T11:17:17;0.70;99.90
2867;DHT22;1441;48.886;8.728;2024-01-15T11:19:45;0.80;99.90
2867;DHT22;1441;48.886;8.728;2024-01-15T11:24:55;0.80;99.90
2867;DHT22;1441;48.886;8.728;2024-01-15T11:27:44;0.80;99.90
2867;DHT22;1441;48.886;8.728;2024-01-15T11:30:11;0.80;99.90
2867;DHT22;1441;48.886;8.728;2024-01-15T11:32:37;0.70;99.90
2867;DHT22;1441;48.886;8.728;2024-01-15T11:35:07;0.70;99.90
2867;DHT22;1441;48.886;8.728;2024-01-15T11:40:36;0.70;99.90
2867;DHT22;1441;48.886;8.728;2024-01-15T11:43:03;0.70;99.90
2867;DHT22;1441;48.886;8.728;2024-01-15T11:45:30;0.70;99.90
2867;DHT22;1441;48.886;8.728;2024-01-15T11:50:30;0.80;99.90
2867;DHT22;1441;48.886;8.728;2024-01-15T11:53:03;0.80;99.90
2867;DHT22;1441;48.886;8.728;2024-01-15T11:55:36;0.70;99.90
2867;DHT22;1441;48.886;8.728;2024-01-15T11:58:08;0.80;99.90
2867;DHT22;1441;48.886;8.728;2024-01-15T12:00:35;0.70;99.90
2867;DHT22;1441;48.886;8.728;2024-01-15T12:03:05;0.70;99.90
2867;DHT22;1441;48.886;8.728;2024-01-15T12:05:30;0.60;99.90
2867;DHT22;1441;48.886;8.728;2024-01-15T12:07:56;0.60;99.90
2867;DHT22;1441;48.886;8.728;2024-01-15T12:10:22;0.60;99.90
2867;DHT22;1441;48.886;8.728;2024-01-15T12:13:19;0.70;99.90
2867;DHT22;1441;48.886;8.728;2024-01-15T12:15:46;0.70;99.90
2867;DHT22;1441;48.886;8.728;2024-01-15T12:18:13;0.70;99.90
2867;DHT22;1441;48.886;8.728;2024-01-15T12:20:40;0.70;99.90
2867;DHT22;1441;48.886;8.728;2024-01-15T12:23:06;0.60;99.90
2867;DHT22;1441;48.886;8.728;2024-01-15T12:25:32;0.60;99.90
2867;DHT22;1441;48.886;8.728;2024-01-15T12:27:59;0.60;99.90
2867;DHT22;1441;48.886;8.728;2024-01-15T12:30:29;0.60;99.90
2867;DHT22;1441;48.886;8.728;2024-01-15T12:32:57;0.60;99.90
2867;DHT22;1441;48.886;8.728;2024-01-15T12:35:24;0.70;99.90
2867;DHT22;1441;48.886;8.728;2024-01-15T12:37:49;0.70;99.90
2867;DHT22;1441;48.886;8.728;2024-01-15T12:40:19;0.70;99.90
2867;DHT22;1441;48.886;8.728;2024-01-15T12:42:44;0.70;99.90
2867;DHT22;1441;48.886;8.728;2024-01-15T12:45:11;0.60;99.90
2867;DHT22;1441;48.886;8.728;2024-01-15T12:47:38;0.70;99.90
2867;DHT22;1441;48.886;8.728;2024-01-15T12:50:11;0.60;99.90
2867;DHT22;1441;48.886;8.728;2024-01-15T12:52:39;0.60;99.90
2867;DHT22;1441;48.886;8.728;2024-01-15T12:55:06;0.60;99.90
2867;DHT22;1441;48.886;8.728;2024-01-15T12:57:32;0.60;99.90
2867;DHT22;1441;48.886;8.728;2024-01-15T12:59:57;0.60;99.90
2867;DHT22;1441;48.886;8.728;2024-01-15T13:02:23;0.60;99.90
2867;DHT22;1441;48.886;8.728;2024-01-15T13:04:49;0.60;99.90
2867;DHT22;1441;48.886;8.728;2024-01-15T13:07:14;0.50;99.90
2867;DHT22;1441;48.886;8.728;2024-01-15T13:09:40;0.50;99.90
2867;DHT22;1441;48.886;8.728;2024-01-15T13:12:06;0.50;99.90
2867;DHT22;1441;48.886;8.728;2024-01-15T13:14:32;0.60;99.90
2867;DHT22;1441;48.886;8.728;2024-01-15T13:16:59;0.60;99.90
2867;DHT22;1441;48.886;8.728;2024-01-15T13:19:25;0.70;99.90
2867;DHT22;1441;48.886;8.728;2024-01-15T13:21:50;0.70;99.90
2867;DHT22;1441;48.886;8.728;2024-01-15T13:24:17;0.70;99.90
2867;DHT22;1441;48.886;8.728;2024-01-15T13:26:43;0.70;99.90
2867;DHT22;1441;48.886;8.728;2024-01-15T13:29:09;0.70;99.90
2867;DHT22;1441;48.886;8.728;2024-01-15T13:31:34;0.70;99.90
2867;DHT22;1441;48.886;8.728;2024-01-15T13:34:00;0.70;99.90
2867;DHT22;1441;48.886;8.728;2024-01-15T13:36:26;0.70;99.90
2867;DHT22;1441;48.886;8.728;2024-01-15T13:38:53;0.70;99.90
2867;DHT22;1441;48.886;8.728;2024-01-15T13:41:22;0.70;99.90
2867;DHT22;1441;48.886;8.728;2024-01-15T13:43:50;0.70;99.90
2867;DHT22;1441;48.886;8.728;2024-01-15T13:46:18;0.70;99.90
2867;DHT22;1441;48.886;8.728;2024-01-15T13:48:44;0.70;99.90
2867;DHT22;1441;48.886;8.728;2024-01-15T13:51:09;0.70;99.90
2867;DHT22;1441;48.886;8.728;2024-01-15T13:53:37;0.60;99.90
2867;DHT22;1441;48.886;8.728;2024-01-15T13:56:03;0.70;99.90
2867;DHT22;1441;48.886;8.728;2024-01-15T13:58:30;0.60;99.90
2867;DHT22;1441;48.886;8.728;2024-01-15T14:00:56;0.60;99.90
2867;DHT22;1441;48.886;8.728;2024-01-15T14:03:21;0.70;99.90
2867;DHT22;1441;48.886;8.728;2024-01-15T14:05:47;0.60;99.90
2867;DHT22;1441;48.886;8.728;2024-01-15T14:08:13;0.60;99.90
2867;DHT22;1441;48.886;8.728;2024-01-15T14:10:38;0.50;99.90
2867;DHT22;1441;48.886;8.728;2024-01-15T14:13:04;0.50;99.90
2867;DHT22;1441;48.886;8.728;2024-01-15T14:15:29;0.50;99.90
2867;DHT22;1441;48.886;8.728;2024-01-15T14:17:55;0.50;99.90
2867;DHT22;1441;48.886;8.728;2024-01-15T14:20:21;0.50;99.90
2867;DHT22;1441;48.886;8.728;2024-01-15T14:22:47;0.50;99.90
2867;DHT22;1441;48.886;8.728;2024-01-15T14:25:13;0.50;99.90
2867;DHT22;1441;48.886;8.728;2024-01-15T14:27:38;0.40;99.90
2867;DHT22;1441;48.886;8.728;2024-01-15T14:30:05;0.40;99.90
2867;DHT22;1441;48.886;8.728;2024-01-15T14:32:31;0.40;99.90
2867;DHT22;1441;48.886;8.728;2024-01-15T14:34:57;0.40;99.90
2867;DHT22;1441;48.886;8.728;2024-01-15T14:37:22;0.40;99.90
2867;DHT22;1441;48.886;8.728;2024-01-15T14:39:48;0.40;99.90
2867;DHT22;1441;48.886;8.728;2024-01-15T14:42:13;0.40;99.90
2867;DHT22;1441;48.886;8.728;2024-01-15T14:44:39;0.30;99.90
2867;DHT22;1441;48.886;8.728;2024-01-15T14:47:06;0.40;99.90
2867;DHT22;1441;48.886;8.728;2024-01-15T14:49:33;0.40;99.90
2867;DHT22;1441;48.886;8.728;2024-01-15T14:51:59;0.40;99.90
2867;DHT22;1441;48.886;8.728;2024-01-15T14:54:24;0.40;99.90
2867;DHT22;1441;48.886;8.728;2024-01-15T14:56:51;0.40;99.90
2867;DHT22;1441;48.886;8.728;2024-01-15T14:59:16;0.40;99.90
2867;DHT22;1441;48.886;8.728;2024-01-15T15:01:42;0.40;99.90
2867;DHT22;1441;48.886;8.728;2024-01-15T15:04:08;0.40;99.90
2867;DHT22;1441;48.886;8.728;2024-01-15T15:06:33;0.40;99.90
2867;DHT22;1441;48.886;8.728;2024-01-15T15:08:59;0.40;99.90
2867;DHT22;1441;48.886;8.728;2024-01-15T15:11:26;0.30;99.90
2867;DHT22;1441;48.886;8.728;2024-01-15T15:13:52;0.30;99.90
2867;DHT22;1441;48.886;8.728;2024-01-15T15:16:17;0.40;99.90
2867;DHT22;1441;48.886;8.728;2024-01-15T15:18:43;0.30;99.90
2867;DHT22;1441;48.886;8.728;2024-01-15T15:21:09;0.30;99.90
2867;DHT22;1441;48.886;8.728;2024-01-15T15:23:35;0.30;99.90
2867;DHT22;1441;48.886;8.728;2024-01-15T15:26:01;0.30;99.90
2867;DHT22;1441;48.886;8.728;2024-01-15T15:28:26;0.30;99.90
2867;DHT22;1441;48.886;8.728;2024-01-15T15:30:52;0.30;99.90
2867;DHT22;1441;48.886;8.728;2024-01-15T15:33:18;0.30;99.90
2867;DHT22;1441;48.886;8.728;2024-01-15T15:35:44;0.30;99.90
2867;DHT22;1441;48.886;8.728;2024-01-15T15:38:10;0.30;99.90
2867;DHT22;1441;48.886;8.728;2024-01-15T15:40:35;0.30;99.90
2867;DHT22;1441;48.886;8.728;2024-01-15T15:43:01;0.20;99.90
2867;DHT22;1441;48.886;8.728;2024-01-15T15:45:27;0.20;99.90
2867;DHT22;1441;48.886;8.728;2024-01-15T15:47:53;0.10;99.90
2867;DHT22;1441;48.886;8.728;2024-01-15T15:50:18;0.10;99.90
2867;DHT22;1441;48.886;8.728;2024-01-15T15:52:44;0.10;99.90
2867;DHT22;1441;48.886;8.728;2024-01-15T15:55:10;0.10;99.90
2867;DHT22;1441;48.886;8.728;2024-01-15T15:57:35;0.10;99.90
2867;DHT22;1441;48.886;8.728;2024-01-15T16:00:01;0.10;99.90
2867;DHT22;1441;48.886;8.728;2024-01-15T16:02:27;0.10;99.90
2867;DHT22;1441;48.886;8.728;2024-01-15T16:04:52;0.10;99.90
2867;DHT22;1441;48.886;8.728;2024-01-15T16:07:18;0.10;99.90
2867;DHT22;1441;48.886;8.728;2024-01-15T16:09:45;0.00;99.90
2867;DHT22;1441;48.886;8.728;2024-01-15T16:12:17;0.00;99.90
2867;DHT22;1441;48.886;8.728;2024-01-15T16:14:44;0.10;99.90